Hovedside
METAR-TAF:

METAR-TAF

Lufthavner :

Amami, Japan

breddegrad: 28-26N, lengdegrad: 129-43E, høyde over havet: 4 m

Gjeldene værobservasjon

Denne rapporten ble laget for 2 timer og 43 minutter siden, klokken 10:00 UTC
Vind 5 kt fra Sør-sørøst, skiftende mellom Øst og Sør
Temperatur 18°C
Luftfuktighet 68%
Trykk 1023 hPa
Sikt 10 km eller mer
Få skyer i en høyde av 2500 ft

METAR: RJKA 241000Z 16005KT 080V190 9999 FEW025 18/12 Q1023

Tid: 21:43 (12:43 UTC)


TAF: fraværende

Værobservasjoner og værvarsel for over 4000 flyplasser (METAR- og TAF-rapporter).

Tilgjengelige stasjoner er representert av de røde og gule prikkene på kartet.

Hold musepekeren over prikken for å se navnet på stasjonen.

Klikk så for å se værobservasjoner og -varsler.

For å forandre kartet kan du klikke på den grønne knappen med svart kryss for å zoome inn, på den grønne knappen med strek for å zoome ut, eller på de grønne pilene for å se tilstøtende kart.


METAR-TAF: